sensor_id;sensor_type;location;lat;lon;timestamp;P1;durP1;ratioP1;P2;durP2;ratioP2
55575;SDS011;41437;45.478;9.116;2023-01-16T00:01:45;98.03;;;58.67;;
55575;SDS011;41437;45.478;9.116;2023-01-16T00:04:47;97.72;;;57.40;;
55575;SDS011;41437;45.478;9.116;2023-01-16T00:07:48;96.97;;;56.75;;
55575;SDS011;41437;45.478;9.116;2023-01-16T00:10:50;96.70;;;56.40;;
55575;SDS011;41437;45.478;9.116;2023-01-16T00:13:53;86.57;;;54.22;;
55575;SDS011;41437;45.478;9.116;2023-01-16T00:16:55;97.38;;;56.90;;
55575;SDS011;41437;45.478;9.116;2023-01-16T00:19:57;96.22;;;55.35;;
55575;SDS011;41437;45.478;9.116;2023-01-16T00:22:58;96.55;;;54.75;;
55575;SDS011;41437;45.478;9.116;2023-01-16T00:26:03;97.68;;;55.97;;
55575;SDS011;41437;45.478;9.116;2023-01-16T00:29:07;98.13;;;56.20;;
55575;SDS011;41437;45.478;9.116;2023-01-16T00:32:09;104.15;;;58.78;;
55575;SDS011;41437;45.478;9.116;2023-01-16T00:35:11;98.00;;;57.15;;
55575;SDS011;41437;45.478;9.116;2023-01-16T00:38:13;97.50;;;56.50;;
55575;SDS011;41437;45.478;9.116;2023-01-16T00:41:15;92.35;;;56.58;;
55575;SDS011;41437;45.478;9.116;2023-01-16T00:44:19;98.15;;;58.25;;
55575;SDS011;41437;45.478;9.116;2023-01-16T00:47:20;104.03;;;59.53;;
55575;SDS011;41437;45.478;9.116;2023-01-16T00:50:22;103.55;;;59.78;;
55575;SDS011;41437;45.478;9.116;2023-01-16T00:53:23;107.05;;;63.83;;
55575;SDS011;41437;45.478;9.116;2023-01-16T00:56:25;106.10;;;64.53;;
55575;SDS011;41437;45.478;9.116;2023-01-16T00:59:28;115.68;;;66.78;;
55575;SDS011;41437;45.478;9.116;2023-01-16T01:02:30;111.35;;;66.13;;
55575;SDS011;41437;45.478;9.116;2023-01-16T01:05:34;114.15;;;66.28;;
55575;SDS011;41437;45.478;9.116;2023-01-16T01:08:36;107.03;;;65.95;;
55575;SDS011;41437;45.478;9.116;2023-01-16T01:11:38;114.35;;;68.88;;
55575;SDS011;41437;45.478;9.116;2023-01-16T01:14:42;116.55;;;69.43;;
55575;SDS011;41437;45.478;9.116;2023-01-16T01:17:44;118.82;;;71.20;;
55575;SDS011;41437;45.478;9.116;2023-01-16T01:20:46;120.97;;;70.05;;
55575;SDS011;41437;45.478;9.116;2023-01-16T01:23:48;122.18;;;72.28;;
55575;SDS011;41437;45.478;9.116;2023-01-16T01:26:49;129.82;;;76.32;;
55575;SDS011;41437;45.478;9.116;2023-01-16T01:29:53;124.70;;;74.55;;
55575;SDS011;41437;45.478;9.116;2023-01-16T01:32:55;134.80;;;78.10;;
55575;SDS011;41437;45.478;9.116;2023-01-16T01:35:57;130.73;;;75.55;;
55575;SDS011;41437;45.478;9.116;2023-01-16T01:38:58;126.93;;;77.53;;
55575;SDS011;41437;45.478;9.116;2023-01-16T01:42:00;134.90;;;78.97;;
55575;SDS011;41437;45.478;9.116;2023-01-16T01:45:22;122.55;;;72.68;;
55575;SDS011;41437;45.478;9.116;2023-01-16T01:48:26;126.10;;;73.63;;
55575;SDS011;41437;45.478;9.116;2023-01-16T01:51:31;117.55;;;69.45;;
55575;SDS011;41437;45.478;9.116;2023-01-16T01:54:36;119.13;;;70.40;;
55575;SDS011;41437;45.478;9.116;2023-01-16T01:57:42;116.50;;;69.47;;
55575;SDS011;41437;45.478;9.116;2023-01-16T02:00:48;121.72;;;72.85;;
55575;SDS011;41437;45.478;9.116;2023-01-16T02:03:54;119.32;;;69.55;;
55575;SDS011;41437;45.478;9.116;2023-01-16T02:07:00;121.45;;;72.03;;
55575;SDS011;41437;45.478;9.116;2023-01-16T02:10:05;128.25;;;75.90;;
55575;SDS011;41437;45.478;9.116;2023-01-16T02:13:15;131.07;;;76.43;;
55575;SDS011;41437;45.478;9.116;2023-01-16T02:16:18;129.27;;;76.72;;
55575;SDS011;41437;45.478;9.116;2023-01-16T02:19:40;126.47;;;76.95;;
55575;SDS011;41437;45.478;9.116;2023-01-16T02:23:04;125.63;;;74.63;;
55575;SDS011;41437;45.478;9.116;2023-01-16T02:26:47;124.93;;;71.93;;
55575;SDS011;41437;45.478;9.116;2023-01-16T02:30:10;126.60;;;74.60;;
55575;SDS011;41437;45.478;9.116;2023-01-16T02:33:22;136.25;;;77.82;;
55575;SDS011;41437;45.478;9.116;2023-01-16T02:36:32;130.57;;;74.95;;
55575;SDS011;41437;45.478;9.116;2023-01-16T02:39:44;134.27;;;77.70;;
55575;SDS011;41437;45.478;9.116;2023-01-16T02:42:55;139.70;;;79.30;;
55575;SDS011;41437;45.478;9.116;2023-01-16T02:46:08;136.38;;;78.65;;
55575;SDS011;41437;45.478;9.116;2023-01-16T02:49:22;122.45;;;74.28;;
55575;SDS011;41437;45.478;9.116;2023-01-16T02:52:32;123.43;;;72.72;;
55575;SDS011;41437;45.478;9.116;2023-01-16T02:55:39;126.50;;;73.75;;
55575;SDS011;41437;45.478;9.116;2023-01-16T02:58:46;116.80;;;70.93;;
55575;SDS011;41437;45.478;9.116;2023-01-16T03:01:50;101.72;;;65.68;;
55575;SDS011;41437;45.478;9.116;2023-01-16T03:04:53;68.38;;;51.00;;
55575;SDS011;41437;45.478;9.116;2023-01-16T03:11:27;123.15;;;71.78;;
55575;SDS011;41437;45.478;9.116;2023-01-16T03:14:33;107.67;;;68.23;;
55575;SDS011;41437;45.478;9.116;2023-01-16T03:17:39;116.22;;;70.88;;
55575;SDS011;41437;45.478;9.116;2023-01-16T03:20:53;109.47;;;69.82;;
55575;SDS011;41437;45.478;9.116;2023-01-16T03:24:03;135.30;;;79.07;;
55575;SDS011;41437;45.478;9.116;2023-01-16T03:27:10;137.20;;;75.45;;
55575;SDS011;41437;45.478;9.116;2023-01-16T03:30:19;142.50;;;79.22;;
55575;SDS011;41437;45.478;9.116;2023-01-16T03:33:29;128.43;;;70.43;;
55575;SDS011;41437;45.478;9.116;2023-01-16T03:36:45;124.03;;;67.28;;
55575;SDS011;41437;45.478;9.116;2023-01-16T03:39:51;119.47;;;67.03;;
55575;SDS011;41437;45.478;9.116;2023-01-16T03:43:00;120.88;;;66.45;;
55575;SDS011;41437;45.478;9.116;2023-01-16T03:46:05;116.53;;;64.32;;
55575;SDS011;41437;45.478;9.116;2023-01-16T03:49:11;113.32;;;64.05;;
55575;SDS011;41437;45.478;9.116;2023-01-16T03:52:18;113.95;;;64.05;;
55575;SDS011;41437;45.478;9.116;2023-01-16T03:55:24;108.13;;;62.08;;
55575;SDS011;41437;45.478;9.116;2023-01-16T03:58:32;122.60;;;65.75;;
55575;SDS011;41437;45.478;9.116;2023-01-16T04:01:37;102.10;;;60.28;;
55575;SDS011;41437;45.478;9.116;2023-01-16T04:04:48;111.28;;;63.28;;
55575;SDS011;41437;45.478;9.116;2023-01-16T04:07:56;111.70;;;61.30;;
55575;SDS011;41437;45.478;9.116;2023-01-16T04:11:00;108.35;;;62.13;;
55575;SDS011;41437;45.478;9.116;2023-01-16T04:14:02;111.82;;;62.33;;
55575;SDS011;41437;45.478;9.116;2023-01-16T04:17:06;117.75;;;57.35;;
55575;SDS011;41437;45.478;9.116;2023-01-16T04:20:08;106.72;;;59.90;;
55575;SDS011;41437;45.478;9.116;2023-01-16T04:23:12;117.75;;;64.95;;
55575;SDS011;41437;45.478;9.116;2023-01-16T04:26:16;102.63;;;59.70;;
55575;SDS011;41437;45.478;9.116;2023-01-16T04:29:17;105.65;;;58.83;;
55575;SDS011;41437;45.478;9.116;2023-01-16T04:32:19;109.22;;;58.00;;
55575;SDS011;41437;45.478;9.116;2023-01-16T04:35:21;109.72;;;58.63;;
55575;SDS011;41437;45.478;9.116;2023-01-16T04:38:24;111.22;;;58.30;;
55575;SDS011;41437;45.478;9.116;2023-01-16T04:41:26;111.32;;;60.08;;
55575;SDS011;41437;45.478;9.116;2023-01-16T04:44:40;113.97;;;60.90;;
55575;SDS011;41437;45.478;9.116;2023-01-16T04:47:44;99.93;;;55.35;;
55575;SDS011;41437;45.478;9.116;2023-01-16T04:50:47;121.65;;;61.60;;
55575;SDS011;41437;45.478;9.116;2023-01-16T04:53:51;129.30;;;63.55;;
55575;SDS011;41437;45.478;9.116;2023-01-16T04:56:53;129.47;;;63.80;;
55575;SDS011;41437;45.478;9.116;2023-01-16T04:59:56;131.88;;;63.25;;
55575;SDS011;41437;45.478;9.116;2023-01-16T05:02:57;130.63;;;64.30;;
55575;SDS011;41437;45.478;9.116;2023-01-16T05:05:59;133.38;;;64.88;;
55575;SDS011;41437;45.478;9.116;2023-01-16T05:09:03;138.88;;;67.80;;
55575;SDS011;41437;45.478;9.116;2023-01-16T05:12:06;164.57;;;76.25;;
55575;SDS011;41437;45.478;9.116;2023-01-16T05:15:10;158.35;;;72.15;;
55575;SDS011;41437;45.478;9.116;2023-01-16T05:18:13;161.93;;;72.72;;
55575;SDS011;41437;45.478;9.116;2023-01-16T05:21:15;160.40;;;72.22;;
55575;SDS011;41437;45.478;9.116;2023-01-16T05:24:18;166.45;;;75.60;;
55575;SDS011;41437;45.478;9.116;2023-01-16T05:27:20;182.48;;;78.07;;
55575;SDS011;41437;45.478;9.116;2023-01-16T05:30:21;190.60;;;77.55;;
55575;SDS011;41437;45.478;9.116;2023-01-16T05:33:23;179.55;;;75.57;;
55575;SDS011;41437;45.478;9.116;2023-01-16T05:36:25;176.02;;;73.38;;
55575;SDS011;41437;45.478;9.116;2023-01-16T05:39:28;159.55;;;68.05;;
55575;SDS011;41437;45.478;9.116;2023-01-16T05:42:30;154.27;;;68.77;;
55575;SDS011;41437;45.478;9.116;2023-01-16T05:45:31;147.88;;;68.95;;
55575;SDS011;41437;45.478;9.116;2023-01-16T05:48:33;135.45;;;63.78;;
55575;SDS011;41437;45.478;9.116;2023-01-16T05:51:35;132.15;;;64.00;;
55575;SDS011;41437;45.478;9.116;2023-01-16T05:54:39;123.15;;;59.08;;
55575;SDS011;41437;45.478;9.116;2023-01-16T05:57:40;127.88;;;61.78;;
55575;SDS011;41437;45.478;9.116;2023-01-16T06:00:42;124.57;;;59.08;;
55575;SDS011;41437;45.478;9.116;2023-01-16T06:03:44;123.63;;;60.63;;
55575;SDS011;41437;45.478;9.116;2023-01-16T06:06:45;132.45;;;59.70;;
55575;SDS011;41437;45.478;9.116;2023-01-16T06:09:48;125.07;;;60.83;;
55575;SDS011;41437;45.478;9.116;2023-01-16T06:12:50;128.55;;;57.42;;
55575;SDS011;41437;45.478;9.116;2023-01-16T06:15:52;120.63;;;57.97;;
55575;SDS011;41437;45.478;9.116;2023-01-16T06:18:53;124.20;;;58.58;;
55575;SDS011;41437;45.478;9.116;2023-01-16T06:21:55;115.93;;;56.55;;
55575;SDS011;41437;45.478;9.116;2023-01-16T06:24:58;109.20;;;53.33;;
55575;SDS011;41437;45.478;9.116;2023-01-16T06:27:59;99.95;;;53.45;;
55575;SDS011;41437;45.478;9.116;2023-01-16T06:31:02;104.85;;;55.03;;
55575;SDS011;41437;45.478;9.116;2023-01-16T06:34:04;87.43;;;49.63;;
55575;SDS011;41437;45.478;9.116;2023-01-16T06:37:05;103.22;;;53.45;;
55575;SDS011;41437;45.478;9.116;2023-01-16T06:40:09;104.55;;;54.55;;
55575;SDS011;41437;45.478;9.116;2023-01-16T06:43:11;101.43;;;53.13;;
55575;SDS011;41437;45.478;9.116;2023-01-16T06:46:13;110.45;;;52.47;;
55575;SDS011;41437;45.478;9.116;2023-01-16T06:49:16;131.43;;;55.00;;
55575;SDS011;41437;45.478;9.116;2023-01-16T06:52:17;91.93;;;51.05;;
55575;SDS011;41437;45.478;9.116;2023-01-16T06:55:21;87.05;;;47.90;;
55575;SDS011;41437;45.478;9.116;2023-01-16T06:58:22;107.47;;;47.33;;
55575;SDS011;41437;45.478;9.116;2023-01-16T07:01:24;374.92;;;52.33;;
55575;SDS011;41437;45.478;9.116;2023-01-16T07:04:26;131.43;;;49.20;;
55575;SDS011;41437;45.478;9.116;2023-01-16T07:07:27;94.68;;;48.58;;
55575;SDS011;41437;45.478;9.116;2023-01-16T07:10:30;207.35;;;45.05;;
55575;SDS011;41437;45.478;9.116;2023-01-16T07:13:32;71.80;;;43.83;;
55575;SDS011;41437;45.478;9.116;2023-01-16T07:16:33;70.30;;;43.08;;
55575;SDS011;41437;45.478;9.116;2023-01-16T07:19:53;179.02;;;46.00;;
55575;SDS011;41437;45.478;9.116;2023-01-16T07:23:14;85.63;;;43.00;;
55575;SDS011;41437;45.478;9.116;2023-01-16T07:26:21;76.60;;;40.67;;
55575;SDS011;41437;45.478;9.116;2023-01-16T07:29:24;63.95;;;38.72;;
55575;SDS011;41437;45.478;9.116;2023-01-16T07:32:26;85.00;;;45.75;;
55575;SDS011;41437;45.478;9.116;2023-01-16T07:35:28;89.82;;;48.15;;
55575;SDS011;41437;45.478;9.116;2023-01-16T07:38:30;100.32;;;50.00;;
55575;SDS011;41437;45.478;9.116;2023-01-16T07:41:33;114.88;;;48.83;;
55575;SDS011;41437;45.478;9.116;2023-01-16T07:44:34;82.88;;;48.58;;
55575;SDS011;41437;45.478;9.116;2023-01-16T07:47:36;73.45;;;45.17;;
55575;SDS011;41437;45.478;9.116;2023-01-16T07:50:38;58.33;;;38.40;;
55575;SDS011;41437;45.478;9.116;2023-01-16T07:53:40;58.47;;;36.45;;
55575;SDS011;41437;45.478;9.116;2023-01-16T07:56:43;70.07;;;40.67;;
55575;SDS011;41437;45.478;9.116;2023-01-16T07:59:44;64.82;;;40.83;;
55575;SDS011;41437;45.478;9.116;2023-01-16T08:02:46;69.13;;;41.45;;
55575;SDS011;41437;45.478;9.116;2023-01-16T08:05:47;84.22;;;44.05;;
55575;SDS011;41437;45.478;9.116;2023-01-16T08:08:50;87.05;;;45.33;;
55575;SDS011;41437;45.478;9.116;2023-01-16T08:11:53;68.43;;;40.50;;
55575;SDS011;41437;45.478;9.116;2023-01-16T08:14:55;61.22;;;40.05;;
55575;SDS011;41437;45.478;9.116;2023-01-16T08:17:56;69.88;;;42.80;;
55575;SDS011;41437;45.478;9.116;2023-01-16T08:20:58;84.80;;;44.55;;
55575;SDS011;41437;45.478;9.116;2023-01-16T08:23:59;82.68;;;45.38;;
55575;SDS011;41437;45.478;9.116;2023-01-16T08:27:02;80.30;;;45.60;;
55575;SDS011;41437;45.478;9.116;2023-01-16T08:30:05;82.60;;;45.03;;
55575;SDS011;41437;45.478;9.116;2023-01-16T08:33:07;74.07;;;43.20;;
55575;SDS011;41437;45.478;9.116;2023-01-16T08:36:10;73.13;;;43.22;;
55575;SDS011;41437;45.478;9.116;2023-01-16T08:39:13;69.60;;;42.63;;
55575;SDS011;41437;45.478;9.116;2023-01-16T08:42:16;67.53;;;41.92;;
55575;SDS011;41437;45.478;9.116;2023-01-16T08:45:35;65.22;;;40.75;;
55575;SDS011;41437;45.478;9.116;2023-01-16T08:48:54;60.05;;;38.50;;
55575;SDS011;41437;45.478;9.116;2023-01-16T08:52:13;69.70;;;40.58;;
55575;SDS011;41437;45.478;9.116;2023-01-16T08:55:15;64.65;;;40.45;;
55575;SDS011;41437;45.478;9.116;2023-01-16T08:58:19;68.38;;;40.75;;
55575;SDS011;41437;45.478;9.116;2023-01-16T09:01:21;67.70;;;41.65;;
55575;SDS011;41437;45.478;9.116;2023-01-16T09:04:24;74.78;;;42.80;;
55575;SDS011;41437;45.478;9.116;2023-01-16T09:07:26;72.88;;;41.30;;
55575;SDS011;41437;45.478;9.116;2023-01-16T09:10:27;68.82;;;41.40;;
55575;SDS011;41437;45.478;9.116;2023-01-16T09:13:31;70.72;;;41.53;;
55575;SDS011;41437;45.478;9.116;2023-01-16T09:16:50;76.30;;;42.95;;
55575;SDS011;41437;45.478;9.116;2023-01-16T09:19:51;75.15;;;42.78;;
55575;SDS011;41437;45.478;9.116;2023-01-16T09:22:57;75.35;;;42.88;;
55575;SDS011;41437;45.478;9.116;2023-01-16T09:25:59;79.22;;;44.15;;
55575;SDS011;41437;45.478;9.116;2023-01-16T09:29:02;72.90;;;43.42;;
55575;SDS011;41437;45.478;9.116;2023-01-16T09:32:03;75.37;;;44.23;;
55575;SDS011;41437;45.478;9.116;2023-01-16T09:35:08;80.97;;;46.72;;
55575;SDS011;41437;45.478;9.116;2023-01-16T09:38:10;87.88;;;47.08;;
55575;SDS011;41437;45.478;9.116;2023-01-16T09:41:13;77.72;;;45.42;;
55575;SDS011;41437;45.478;9.116;2023-01-16T09:44:38;74.50;;;44.63;;
55575;SDS011;41437;45.478;9.116;2023-01-16T09:47:41;75.80;;;44.70;;
55575;SDS011;41437;45.478;9.116;2023-01-16T09:50:49;80.68;;;45.60;;
55575;SDS011;41437;45.478;9.116;2023-01-16T09:53:54;81.05;;;46.75;;
55575;SDS011;41437;45.478;9.116;2023-01-16T09:57:17;80.68;;;46.08;;
55575;SDS011;41437;45.478;9.116;2023-01-16T10:00:37;74.28;;;42.42;;
55575;SDS011;41437;45.478;9.116;2023-01-16T10:03:39;70.60;;;41.50;;
55575;SDS011;41437;45.478;9.116;2023-01-16T10:06:45;75.77;;;42.77;;
55575;SDS011;41437;45.478;9.116;2023-01-16T10:09:55;73.65;;;42.65;;
55575;SDS011;41437;45.478;9.116;2023-01-16T10:13:06;66.13;;;40.35;;
55575;SDS011;41437;45.478;9.116;2023-01-16T10:16:19;64.82;;;38.78;;
55575;SDS011;41437;45.478;9.116;2023-01-16T10:19:30;70.20;;;40.50;;
55575;SDS011;41437;45.478;9.116;2023-01-16T10:22:44;69.43;;;39.60;;
55575;SDS011;41437;45.478;9.116;2023-01-16T10:25:57;69.75;;;39.75;;
55575;SDS011;41437;45.478;9.116;2023-01-16T10:29:10;73.88;;;40.90;;
55575;SDS011;41437;45.478;9.116;2023-01-16T10:32:26;65.35;;;38.00;;
55575;SDS011;41437;45.478;9.116;2023-01-16T10:35:33;69.28;;;39.00;;
55575;SDS011;41437;45.478;9.116;2023-01-16T10:38:39;71.60;;;40.78;;
55575;SDS011;41437;45.478;9.116;2023-01-16T10:41:46;71.72;;;40.30;;
55575;SDS011;41437;45.478;9.116;2023-01-16T10:45:16;73.00;;;40.83;;
55575;SDS011;41437;45.478;9.116;2023-01-16T10:48:40;70.00;;;38.42;;
55575;SDS011;41437;45.478;9.116;2023-01-16T10:55:15;65.80;;;35.13;;
55575;SDS011;41437;45.478;9.116;2023-01-16T10:58:21;76.07;;;38.63;;
55575;SDS011;41437;45.478;9.116;2023-01-16T11:01:26;73.13;;;36.55;;
55575;SDS011;41437;45.478;9.116;2023-01-16T11:04:34;78.70;;;39.78;;
55575;SDS011;41437;45.478;9.116;2023-01-16T11:07:37;90.50;;;42.92;;
55575;SDS011;41437;45.478;9.116;2023-01-16T11:10:39;99.10;;;44.70;;
55575;SDS011;41437;45.478;9.116;2023-01-16T11:13:42;91.40;;;42.97;;
55575;SDS011;41437;45.478;9.116;2023-01-16T11:17:10;89.57;;;43.58;;
55575;SDS011;41437;45.478;9.116;2023-01-16T11:20:41;100.10;;;42.70;;
55575;SDS011;41437;45.478;9.116;2023-01-16T11:23:46;102.60;;;44.40;;
55575;SDS011;41437;45.478;9.116;2023-01-16T11:26:50;86.57;;;42.70;;
55575;SDS011;41437;45.478;9.116;2023-01-16T11:29:53;91.88;;;43.78;;
55575;SDS011;41437;45.478;9.116;2023-01-16T11:32:58;80.47;;;40.50;;
55575;SDS011;41437;45.478;9.116;2023-01-16T11:36:09;80.85;;;41.38;;
55575;SDS011;41437;45.478;9.116;2023-01-16T11:39:17;78.47;;;39.22;;
55575;SDS011;41437;45.478;9.116;2023-01-16T11:42:22;75.82;;;41.03;;
55575;SDS011;41437;45.478;9.116;2023-01-16T11:45:43;85.05;;;41.45;;
55575;SDS011;41437;45.478;9.116;2023-01-16T11:49:13;82.13;;;38.72;;
55575;SDS011;41437;45.478;9.116;2023-01-16T11:52:19;71.25;;;35.95;;
55575;SDS011;41437;45.478;9.116;2023-01-16T11:55:29;71.10;;;35.83;;
55575;SDS011;41437;45.478;9.116;2023-01-16T11:58:42;69.20;;;34.20;;
55575;SDS011;41437;45.478;9.116;2023-01-16T12:01:54;63.15;;;32.53;;
55575;SDS011;41437;45.478;9.116;2023-01-16T12:05:23;62.15;;;31.27;;
55575;SDS011;41437;45.478;9.116;2023-01-16T12:12:23;58.15;;;29.08;;
55575;SDS011;41437;45.478;9.116;2023-01-16T12:15:54;58.50;;;29.23;;
55575;SDS011;41437;45.478;9.116;2023-01-16T12:19:10;55.07;;;29.17;;
55575;SDS011;41437;45.478;9.116;2023-01-16T12:22:31;58.55;;;28.10;;
55575;SDS011;41437;45.478;9.116;2023-01-16T12:25:55;55.97;;;27.45;;
55575;SDS011;41437;45.478;9.116;2023-01-16T12:29:10;61.25;;;29.40;;
55575;SDS011;41437;45.478;9.116;2023-01-16T12:32:25;60.28;;;28.58;;
55575;SDS011;41437;45.478;9.116;2023-01-16T12:35:41;58.45;;;29.08;;
55575;SDS011;41437;45.478;9.116;2023-01-16T12:38:51;54.78;;;27.33;;
55575;SDS011;41437;45.478;9.116;2023-01-16T12:42:03;48.28;;;26.40;;
55575;SDS011;41437;45.478;9.116;2023-01-16T12:45:35;49.08;;;25.77;;
55575;SDS011;41437;45.478;9.116;2023-01-16T12:48:49;44.20;;;24.15;;
55575;SDS011;41437;45.478;9.116;2023-01-16T12:52:04;40.53;;;22.60;;
55575;SDS011;41437;45.478;9.116;2023-01-16T12:55:28;36.80;;;20.73;;
55575;SDS011;41437;45.478;9.116;2023-01-16T12:58:40;38.85;;;21.17;;
55575;SDS011;41437;45.478;9.116;2023-01-16T13:01:51;40.78;;;20.98;;
55575;SDS011;41437;45.478;9.116;2023-01-16T13:04:58;43.20;;;22.65;;
55575;SDS011;41437;45.478;9.116;2023-01-16T13:08:04;43.05;;;23.13;;
55575;SDS011;41437;45.478;9.116;2023-01-16T13:11:13;40.28;;;23.13;;
55575;SDS011;41437;45.478;9.116;2023-01-16T13:14:40;39.33;;;23.05;;
55575;SDS011;41437;45.478;9.116;2023-01-16T13:17:45;38.38;;;21.98;;
55575;SDS011;41437;45.478;9.116;2023-01-16T13:20:51;35.65;;;20.90;;
55575;SDS011;41437;45.478;9.116;2023-01-16T13:23:55;34.65;;;20.58;;
55575;SDS011;41437;45.478;9.116;2023-01-16T13:27:02;35.22;;;20.20;;
55575;SDS011;41437;45.478;9.116;2023-01-16T13:30:08;33.88;;;20.02;;
55575;SDS011;41437;45.478;9.116;2023-01-16T13:33:16;33.75;;;20.70;;
55575;SDS011;41437;45.478;9.116;2023-01-16T13:36:31;36.72;;;20.58;;
55575;SDS011;41437;45.478;9.116;2023-01-16T13:40:12;36.60;;;21.15;;
55575;SDS011;41437;45.478;9.116;2023-01-16T13:43:25;35.65;;;20.38;;
55575;SDS011;41437;45.478;9.116;2023-01-16T13:46:51;37.78;;;20.08;;
55575;SDS011;41437;45.478;9.116;2023-01-16T13:49:54;40.08;;;20.67;;
55575;SDS011;41437;45.478;9.116;2023-01-16T13:53:02;28.92;;;18.95;;
55575;SDS011;41437;45.478;9.116;2023-01-16T13:56:09;30.42;;;18.90;;
55575;SDS011;41437;45.478;9.116;2023-01-16T13:59:20;31.83;;;19.17;;
55575;SDS011;41437;45.478;9.116;2023-01-16T14:02:42;32.63;;;19.58;;
55575;SDS011;41437;45.478;9.116;2023-01-16T14:05:48;33.13;;;19.55;;
55575;SDS011;41437;45.478;9.116;2023-01-16T14:09:06;31.10;;;19.65;;
55575;SDS011;41437;45.478;9.116;2023-01-16T14:12:21;28.00;;;18.00;;
55575;SDS011;41437;45.478;9.116;2023-01-16T14:15:25;29.70;;;18.77;;
55575;SDS011;41437;45.478;9.116;2023-01-16T14:22:24;30.58;;;18.65;;
55575;SDS011;41437;45.478;9.116;2023-01-16T14:25:52;29.77;;;18.60;;
55575;SDS011;41437;45.478;9.116;2023-01-16T14:31:59;33.90;;;20.30;;
55575;SDS011;41437;45.478;9.116;2023-01-16T14:35:12;36.25;;;21.30;;
55575;SDS011;41437;45.478;9.116;2023-01-16T14:38:17;37.35;;;21.55;;
55575;SDS011;41437;45.478;9.116;2023-01-16T14:41:23;39.33;;;21.60;;
55575;SDS011;41437;45.478;9.116;2023-01-16T14:48:44;36.88;;;20.58;;
55575;SDS011;41437;45.478;9.116;2023-01-16T14:52:09;39.50;;;20.48;;
55575;SDS011;41437;45.478;9.116;2023-01-16T14:55:42;39.38;;;21.40;;
55575;SDS011;41437;45.478;9.116;2023-01-16T14:58:50;36.67;;;20.02;;
55575;SDS011;41437;45.478;9.116;2023-01-16T15:01:57;38.28;;;20.73;;
55575;SDS011;41437;45.478;9.116;2023-01-16T15:05:22;41.20;;;21.25;;
55575;SDS011;41437;45.478;9.116;2023-01-16T15:08:51;38.50;;;20.30;;
55575;SDS011;41437;45.478;9.116;2023-01-16T15:11:57;37.95;;;20.63;;
55575;SDS011;41437;45.478;9.116;2023-01-16T15:15:02;38.15;;;20.10;;
55575;SDS011;41437;45.478;9.116;2023-01-16T15:18:03;38.78;;;20.50;;
55575;SDS011;41437;45.478;9.116;2023-01-16T15:21:23;39.38;;;20.60;;
55575;SDS011;41437;45.478;9.116;2023-01-16T15:24:43;42.72;;;21.92;;
55575;SDS011;41437;45.478;9.116;2023-01-16T15:27:58;45.22;;;21.45;;
55575;SDS011;41437;45.478;9.116;2023-01-16T15:31:08;42.03;;;22.23;;
55575;SDS011;41437;45.478;9.116;2023-01-16T15:34:18;46.67;;;23.50;;
55575;SDS011;41437;45.478;9.116;2023-01-16T15:37:26;49.88;;;22.73;;
55575;SDS011;41437;45.478;9.116;2023-01-16T15:40:30;44.08;;;22.33;;
55575;SDS011;41437;45.478;9.116;2023-01-16T15:43:32;38.10;;;21.60;;
55575;SDS011;41437;45.478;9.116;2023-01-16T15:46:54;42.55;;;20.73;;
55575;SDS011;41437;45.478;9.116;2023-01-16T15:53:15;37.60;;;19.38;;
55575;SDS011;41437;45.478;9.116;2023-01-16T15:56:20;39.58;;;21.17;;
55575;SDS011;41437;45.478;9.116;2023-01-16T15:59:25;39.30;;;20.58;;
55575;SDS011;41437;45.478;9.116;2023-01-16T16:02:30;40.05;;;20.35;;
55575;SDS011;41437;45.478;9.116;2023-01-16T16:05:33;37.17;;;20.00;;
55575;SDS011;41437;45.478;9.116;2023-01-16T16:08:38;39.13;;;20.42;;
55575;SDS011;41437;45.478;9.116;2023-01-16T16:11:44;42.33;;;21.55;;
55575;SDS011;41437;45.478;9.116;2023-01-16T16:15:06;41.90;;;22.15;;
55575;SDS011;41437;45.478;9.116;2023-01-16T16:18:35;44.05;;;23.88;;
55575;SDS011;41437;45.478;9.116;2023-01-16T16:21:41;44.47;;;23.05;;
55575;SDS011;41437;45.478;9.116;2023-01-16T16:25:08;47.58;;;23.05;;
55575;SDS011;41437;45.478;9.116;2023-01-16T16:28:33;46.05;;;23.88;;
55575;SDS011;41437;45.478;9.116;2023-01-16T16:31:38;49.30;;;24.08;;
55575;SDS011;41437;45.478;9.116;2023-01-16T16:34:49;48.33;;;24.10;;
55575;SDS011;41437;45.478;9.116;2023-01-16T16:37:53;48.60;;;24.90;;
55575;SDS011;41437;45.478;9.116;2023-01-16T16:45:07;50.15;;;23.88;;
55575;SDS011;41437;45.478;9.116;2023-01-16T16:48:20;51.47;;;25.33;;
55575;SDS011;41437;45.478;9.116;2023-01-16T16:51:26;57.03;;;29.48;;
55575;SDS011;41437;45.478;9.116;2023-01-16T16:54:29;72.70;;;33.60;;
55575;SDS011;41437;45.478;9.116;2023-01-16T16:57:40;68.90;;;33.42;;
55575;SDS011;41437;45.478;9.116;2023-01-16T17:00:46;84.80;;;35.75;;
55575;SDS011;41437;45.478;9.116;2023-01-16T17:03:53;81.97;;;33.05;;
55575;SDS011;41437;45.478;9.116;2023-01-16T17:06:58;78.45;;;35.45;;
55575;SDS011;41437;45.478;9.116;2023-01-16T17:09:59;77.18;;;34.35;;
55575;SDS011;41437;45.478;9.116;2023-01-16T17:13:04;72.80;;;33.53;;
55575;SDS011;41437;45.478;9.116;2023-01-16T17:16:12;75.28;;;34.95;;
55575;SDS011;41437;45.478;9.116;2023-01-16T17:19:19;72.95;;;34.58;;
55575;SDS011;41437;45.478;9.116;2023-01-16T17:22:24;76.25;;;35.60;;
55575;SDS011;41437;45.478;9.116;2023-01-16T17:25:26;78.05;;;34.97;;
55575;SDS011;41437;45.478;9.116;2023-01-16T17:28:28;75.70;;;35.53;;
55575;SDS011;41437;45.478;9.116;2023-01-16T17:31:32;70.30;;;34.75;;
55575;SDS011;41437;45.478;9.116;2023-01-16T17:34:35;73.43;;;35.28;;
55575;SDS011;41437;45.478;9.116;2023-01-16T17:37:36;74.10;;;35.40;;
55575;SDS011;41437;45.478;9.116;2023-01-16T17:40:38;70.38;;;34.00;;
55575;SDS011;41437;45.478;9.116;2023-01-16T17:43:41;74.40;;;35.92;;
55575;SDS011;41437;45.478;9.116;2023-01-16T17:47:02;75.97;;;35.90;;
55575;SDS011;41437;45.478;9.116;2023-01-16T17:50:04;72.90;;;36.17;;
55575;SDS011;41437;45.478;9.116;2023-01-16T17:53:22;73.82;;;35.15;;
55575;SDS011;41437;45.478;9.116;2023-01-16T17:56:25;69.32;;;34.60;;
55575;SDS011;41437;45.478;9.116;2023-01-16T17:59:36;70.55;;;34.45;;
55575;SDS011;41437;45.478;9.116;2023-01-16T18:02:40;73.05;;;34.53;;
55575;SDS011;41437;45.478;9.116;2023-01-16T18:05:42;55.20;;;27.30;;
55575;SDS011;41437;45.478;9.116;2023-01-16T18:08:46;54.80;;;26.85;;
55575;SDS011;41437;45.478;9.116;2023-01-16T18:11:49;42.25;;;22.25;;
55575;SDS011;41437;45.478;9.116;2023-01-16T18:15:09;40.17;;;20.50;;
55575;SDS011;41437;45.478;9.116;2023-01-16T18:18:35;35.83;;;17.75;;
55575;SDS011;41437;45.478;9.116;2023-01-16T18:21:37;27.98;;;15.05;;
55575;SDS011;41437;45.478;9.116;2023-01-16T18:24:56;25.67;;;14.65;;
55575;SDS011;41437;45.478;9.116;2023-01-16T18:27:57;28.63;;;14.43;;
55575;SDS011;41437;45.478;9.116;2023-01-16T18:31:02;26.73;;;14.88;;
55575;SDS011;41437;45.478;9.116;2023-01-16T18:34:07;28.08;;;14.25;;
55575;SDS011;41437;45.478;9.116;2023-01-16T18:37:08;25.23;;;13.93;;
55575;SDS011;41437;45.478;9.116;2023-01-16T18:40:11;23.42;;;13.82;;